Santo Domingo, Dominican Republic
Current Conditions -  °F | °C
As of 2:00 AM on Sunday 26 Oct 2014 (Local Time) from MDSD Reporting Station
Scattered Clouds Scattered Clouds  
Wind Chill: 81°   Ceiling: Unl
Heat Index: 87°   Visibility: 6mi
Dew Point: 77°   Wind: 7mph
Humidity: 89%   Direction: 210°SSW
Pressure: 29.83"   Gusts: NA
Location:  18.48°N, 69.91°W
Report Text: MDSD 260600Z 21006KT 9999 FEW018 SCT300 27/25 Q1010
Loading
Personal Weather Stations






























Interactive Weather Map
Tropical Storm Tracking
New forecast layout! Learn more

10-Day Weather Forecast

Advertisements
Track Severe Weather on mobile